sensor_id;sensor_type;location;lat;lon;timestamp;P1;durP1;ratioP1;P2;durP2;ratioP2
76262;SDS011;65080;50.908;6.916;2023-04-08T00:02:08;20.70;;;11.53;;
76262;SDS011;65080;50.908;6.916;2023-04-08T00:04:36;19.20;;;11.70;;
76262;SDS011;65080;50.908;6.916;2023-04-08T00:07:04;20.20;;;10.00;;
76262;SDS011;65080;50.908;6.916;2023-04-08T00:09:33;18.50;;;11.60;;
76262;SDS011;65080;50.908;6.916;2023-04-08T00:12:01;22.20;;;10.10;;
76262;SDS011;65080;50.908;6.916;2023-04-08T00:14:29;26.50;;;12.60;;
76262;SDS011;65080;50.908;6.916;2023-04-08T00:16:57;21.67;;;11.20;;
76262;SDS011;65080;50.908;6.916;2023-04-08T00:19:27;22.77;;;11.77;;
76262;SDS011;65080;50.908;6.916;2023-04-08T00:21:55;21.20;;;11.33;;
76262;SDS011;65080;50.908;6.916;2023-04-08T00:24:24;20.90;;;11.87;;
76262;SDS011;65080;50.908;6.916;2023-04-08T00:26:52;21.93;;;11.93;;
76262;SDS011;65080;50.908;6.916;2023-04-08T00:29:20;16.73;;;12.07;;
76262;SDS011;65080;50.908;6.916;2023-04-08T00:31:49;21.47;;;10.47;;
76262;SDS011;65080;50.908;6.916;2023-04-08T00:34:18;18.20;;;10.90;;
76262;SDS011;65080;50.908;6.916;2023-04-08T00:36:47;15.63;;;10.30;;
76262;SDS011;65080;50.908;6.916;2023-04-08T00:39:18;30.03;;;12.00;;
76262;SDS011;65080;50.908;6.916;2023-04-08T00:41:47;24.53;;;11.90;;
76262;SDS011;65080;50.908;6.916;2023-04-08T00:44:15;18.33;;;10.90;;
76262;SDS011;65080;50.908;6.916;2023-04-08T00:46:44;31.03;;;12.33;;
76262;SDS011;65080;50.908;6.916;2023-04-08T00:49:12;18.67;;;12.63;;
76262;SDS011;65080;50.908;6.916;2023-04-08T00:51:41;23.40;;;12.80;;
76262;SDS011;65080;50.908;6.916;2023-04-08T00:54:10;18.93;;;9.97;;
76262;SDS011;65080;50.908;6.916;2023-04-08T00:56:39;23.50;;;11.97;;
76262;SDS011;65080;50.908;6.916;2023-04-08T00:59:07;19.50;;;12.70;;
76262;SDS011;65080;50.908;6.916;2023-04-08T01:01:42;19.87;;;11.43;;
76262;SDS011;65080;50.908;6.916;2023-04-08T01:04:19;21.50;;;11.27;;
76262;SDS011;65080;50.908;6.916;2023-04-08T01:06:56;21.03;;;11.53;;
76262;SDS011;65080;50.908;6.916;2023-04-08T01:09:32;23.13;;;12.23;;
76262;SDS011;65080;50.908;6.916;2023-04-08T01:12:05;20.47;;;11.13;;
76262;SDS011;65080;50.908;6.916;2023-04-08T01:14:37;19.37;;;11.17;;
76262;SDS011;65080;50.908;6.916;2023-04-08T01:17:08;21.30;;;12.00;;
76262;SDS011;65080;50.908;6.916;2023-04-08T01:19:37;23.63;;;11.93;;
76262;SDS011;65080;50.908;6.916;2023-04-08T01:22:09;19.97;;;11.67;;
76262;SDS011;65080;50.908;6.916;2023-04-08T01:24:44;25.37;;;12.90;;
76262;SDS011;65080;50.908;6.916;2023-04-08T01:27:15;22.03;;;12.00;;
76262;SDS011;65080;50.908;6.916;2023-04-08T01:29:45;33.03;;;11.57;;
76262;SDS011;65080;50.908;6.916;2023-04-08T01:32:15;15.67;;;11.23;;
76262;SDS011;65080;50.908;6.916;2023-04-08T01:34:44;22.10;;;12.43;;
76262;SDS011;65080;50.908;6.916;2023-04-08T01:37:13;23.13;;;11.53;;
76262;SDS011;65080;50.908;6.916;2023-04-08T01:39:42;21.23;;;12.03;;
76262;SDS011;65080;50.908;6.916;2023-04-08T01:42:11;21.50;;;11.50;;
76262;SDS011;65080;50.908;6.916;2023-04-08T01:44:42;27.30;;;12.43;;
76262;SDS011;65080;50.908;6.916;2023-04-08T01:47:12;22.20;;;11.57;;
76262;SDS011;65080;50.908;6.916;2023-04-08T01:49:41;29.43;;;12.90;;
76262;SDS011;65080;50.908;6.916;2023-04-08T01:52:10;27.90;;;12.70;;
76262;SDS011;65080;50.908;6.916;2023-04-08T01:54:41;24.77;;;13.83;;
76262;SDS011;65080;50.908;6.916;2023-04-08T01:57:10;24.90;;;11.90;;
76262;SDS011;65080;50.908;6.916;2023-04-08T01:59:42;17.23;;;11.10;;
76262;SDS011;65080;50.908;6.916;2023-04-08T02:02:14;22.30;;;14.03;;
76262;SDS011;65080;50.908;6.916;2023-04-08T02:04:46;19.77;;;12.87;;
76262;SDS011;65080;50.908;6.916;2023-04-08T02:07:15;20.80;;;11.60;;
76262;SDS011;65080;50.908;6.916;2023-04-08T02:09:44;21.37;;;10.90;;
76262;SDS011;65080;50.908;6.916;2023-04-08T02:12:12;29.33;;;12.47;;
76262;SDS011;65080;50.908;6.916;2023-04-08T02:14:40;20.27;;;11.60;;
76262;SDS011;65080;50.908;6.916;2023-04-08T02:17:12;27.90;;;12.30;;
76262;SDS011;65080;50.908;6.916;2023-04-08T02:19:45;20.33;;;12.93;;
76262;SDS011;65080;50.908;6.916;2023-04-08T02:22:21;22.57;;;13.60;;
76262;SDS011;65080;50.908;6.916;2023-04-08T02:24:56;22.00;;;13.67;;
76262;SDS011;65080;50.908;6.916;2023-04-08T02:27:26;18.90;;;12.93;;
76262;SDS011;65080;50.908;6.916;2023-04-08T02:29:57;21.60;;;13.53;;
76262;SDS011;65080;50.908;6.916;2023-04-08T02:32:27;30.23;;;14.37;;
76262;SDS011;65080;50.908;6.916;2023-04-08T02:34:58;22.03;;;13.40;;
76262;SDS011;65080;50.908;6.916;2023-04-08T02:37:27;22.17;;;13.73;;
76262;SDS011;65080;50.908;6.916;2023-04-08T02:39:55;25.87;;;14.97;;
76262;SDS011;65080;50.908;6.916;2023-04-08T02:42:24;27.07;;;15.30;;
76262;SDS011;65080;50.908;6.916;2023-04-08T02:44:52;26.23;;;14.70;;
76262;SDS011;65080;50.908;6.916;2023-04-08T02:47:22;31.43;;;16.20;;
76262;SDS011;65080;50.908;6.916;2023-04-08T02:49:50;28.50;;;16.27;;
76262;SDS011;65080;50.908;6.916;2023-04-08T02:52:20;28.23;;;16.70;;
76262;SDS011;65080;50.908;6.916;2023-04-08T02:54:48;28.27;;;15.20;;
76262;SDS011;65080;50.908;6.916;2023-04-08T02:57:17;27.80;;;15.37;;
76262;SDS011;65080;50.908;6.916;2023-04-08T02:59:45;23.67;;;15.83;;
76262;SDS011;65080;50.908;6.916;2023-04-08T03:02:13;30.20;;;17.20;;
76262;SDS011;65080;50.908;6.916;2023-04-08T03:04:43;32.53;;;15.70;;
76262;SDS011;65080;50.908;6.916;2023-04-08T03:07:12;29.57;;;16.93;;
76262;SDS011;65080;50.908;6.916;2023-04-08T03:09:40;28.27;;;17.63;;
76262;SDS011;65080;50.908;6.916;2023-04-08T03:12:09;29.87;;;16.13;;
76262;SDS011;65080;50.908;6.916;2023-04-08T03:14:37;31.80;;;15.77;;
76262;SDS011;65080;50.908;6.916;2023-04-08T03:17:05;27.70;;;15.53;;
76262;SDS011;65080;50.908;6.916;2023-04-08T03:19:33;32.30;;;16.60;;
76262;SDS011;65080;50.908;6.916;2023-04-08T03:22:03;29.33;;;17.20;;
76262;SDS011;65080;50.908;6.916;2023-04-08T03:24:31;28.73;;;16.23;;
76262;SDS011;65080;50.908;6.916;2023-04-08T03:26:59;38.17;;;17.37;;
76262;SDS011;65080;50.908;6.916;2023-04-08T03:29:30;22.60;;;16.40;;
76262;SDS011;65080;50.908;6.916;2023-04-08T03:31:58;34.00;;;18.63;;
76262;SDS011;65080;50.908;6.916;2023-04-08T03:34:26;33.00;;;17.57;;
76262;SDS011;65080;50.908;6.916;2023-04-08T03:36:54;31.27;;;18.10;;
76262;SDS011;65080;50.908;6.916;2023-04-08T03:39:24;23.37;;;16.10;;
76262;SDS011;65080;50.908;6.916;2023-04-08T03:41:52;27.83;;;16.67;;
76262;SDS011;65080;50.908;6.916;2023-04-08T03:44:20;27.53;;;15.90;;
76262;SDS011;65080;50.908;6.916;2023-04-08T03:46:48;26.70;;;15.77;;
76262;SDS011;65080;50.908;6.916;2023-04-08T03:49:17;26.63;;;17.37;;
76262;SDS011;65080;50.908;6.916;2023-04-08T03:51:45;26.90;;;18.33;;
76262;SDS011;65080;50.908;6.916;2023-04-08T03:54:13;28.40;;;17.77;;
76262;SDS011;65080;50.908;6.916;2023-04-08T03:56:43;27.30;;;17.47;;
76262;SDS011;65080;50.908;6.916;2023-04-08T03:59:11;27.07;;;18.77;;
76262;SDS011;65080;50.908;6.916;2023-04-08T04:01:39;31.20;;;18.53;;
76262;SDS011;65080;50.908;6.916;2023-04-08T04:04:07;25.43;;;17.97;;
76262;SDS011;65080;50.908;6.916;2023-04-08T04:06:36;29.23;;;18.43;;
76262;SDS011;65080;50.908;6.916;2023-04-08T04:09:07;32.80;;;20.33;;
76262;SDS011;65080;50.908;6.916;2023-04-08T04:11:35;27.47;;;17.40;;
76262;SDS011;65080;50.908;6.916;2023-04-08T04:14:04;34.23;;;19.30;;
76262;SDS011;65080;50.908;6.916;2023-04-08T04:16:33;29.30;;;19.03;;
76262;SDS011;65080;50.908;6.916;2023-04-08T04:19:01;34.70;;;19.10;;
76262;SDS011;65080;50.908;6.916;2023-04-08T04:21:29;28.23;;;18.20;;
76262;SDS011;65080;50.908;6.916;2023-04-08T04:23:57;34.10;;;19.70;;
76262;SDS011;65080;50.908;6.916;2023-04-08T04:26:26;37.87;;;21.80;;
76262;SDS011;65080;50.908;6.916;2023-04-08T04:28:54;29.50;;;18.87;;
76262;SDS011;65080;50.908;6.916;2023-04-08T04:31:23;30.03;;;18.77;;
76262;SDS011;65080;50.908;6.916;2023-04-08T04:33:55;28.97;;;17.43;;
76262;SDS011;65080;50.908;6.916;2023-04-08T04:36:23;33.33;;;19.80;;
76262;SDS011;65080;50.908;6.916;2023-04-08T04:38:51;40.50;;;20.50;;
76262;SDS011;65080;50.908;6.916;2023-04-08T04:41:20;34.40;;;20.63;;
76262;SDS011;65080;50.908;6.916;2023-04-08T04:43:48;37.23;;;21.70;;
76262;SDS011;65080;50.908;6.916;2023-04-08T04:46:17;32.47;;;21.10;;
76262;SDS011;65080;50.908;6.916;2023-04-08T04:48:46;33.50;;;21.10;;
76262;SDS011;65080;50.908;6.916;2023-04-08T04:51:15;34.33;;;21.10;;
76262;SDS011;65080;50.908;6.916;2023-04-08T04:53:43;33.00;;;20.60;;
76262;SDS011;65080;50.908;6.916;2023-04-08T04:56:11;35.13;;;19.90;;
76262;SDS011;65080;50.908;6.916;2023-04-08T04:58:39;36.57;;;23.47;;
76262;SDS011;65080;50.908;6.916;2023-04-08T05:01:08;39.73;;;22.20;;
76262;SDS011;65080;50.908;6.916;2023-04-08T05:03:36;37.20;;;20.57;;
76262;SDS011;65080;50.908;6.916;2023-04-08T05:06:06;36.30;;;21.80;;
76262;SDS011;65080;50.908;6.916;2023-04-08T05:08:34;37.20;;;21.73;;
76262;SDS011;65080;50.908;6.916;2023-04-08T05:11:02;35.37;;;20.20;;
76262;SDS011;65080;50.908;6.916;2023-04-08T05:13:31;36.07;;;21.73;;
76262;SDS011;65080;50.908;6.916;2023-04-08T05:15:59;40.23;;;21.27;;
76262;SDS011;65080;50.908;6.916;2023-04-08T05:18:27;36.57;;;22.40;;
76262;SDS011;65080;50.908;6.916;2023-04-08T05:20:56;43.90;;;23.30;;
76262;SDS011;65080;50.908;6.916;2023-04-08T05:23:26;36.37;;;19.57;;
76262;SDS011;65080;50.908;6.916;2023-04-08T05:25:54;37.20;;;22.33;;
76262;SDS011;65080;50.908;6.916;2023-04-08T05:28:23;34.70;;;20.53;;
76262;SDS011;65080;50.908;6.916;2023-04-08T05:30:51;32.90;;;19.73;;
76262;SDS011;65080;50.908;6.916;2023-04-08T05:33:20;30.63;;;18.30;;
76262;SDS011;65080;50.908;6.916;2023-04-08T05:35:48;34.07;;;19.70;;
76262;SDS011;65080;50.908;6.916;2023-04-08T05:38:16;32.90;;;19.00;;
76262;SDS011;65080;50.908;6.916;2023-04-08T05:40:46;42.70;;;20.97;;
76262;SDS011;65080;50.908;6.916;2023-04-08T05:43:14;33.37;;;18.60;;
76262;SDS011;65080;50.908;6.916;2023-04-08T05:45:42;32.70;;;19.23;;
76262;SDS011;65080;50.908;6.916;2023-04-08T05:48:11;31.90;;;20.07;;
76262;SDS011;65080;50.908;6.916;2023-04-08T05:50:39;32.27;;;19.63;;
76262;SDS011;65080;50.908;6.916;2023-04-08T05:53:08;35.43;;;20.50;;
76262;SDS011;65080;50.908;6.916;2023-04-08T05:55:36;30.43;;;18.50;;
76262;SDS011;65080;50.908;6.916;2023-04-08T05:58:05;36.00;;;20.93;;
76262;SDS011;65080;50.908;6.916;2023-04-08T06:00:34;33.00;;;20.20;;
76262;SDS011;65080;50.908;6.916;2023-04-08T06:03:02;36.30;;;20.70;;
76262;SDS011;65080;50.908;6.916;2023-04-08T06:05:31;36.90;;;21.77;;
76262;SDS011;65080;50.908;6.916;2023-04-08T06:07:59;40.10;;;20.70;;
76262;SDS011;65080;50.908;6.916;2023-04-08T06:10:27;35.20;;;20.43;;
76262;SDS011;65080;50.908;6.916;2023-04-08T06:12:57;37.87;;;21.80;;
76262;SDS011;65080;50.908;6.916;2023-04-08T06:15:26;35.10;;;20.23;;
76262;SDS011;65080;50.908;6.916;2023-04-08T06:17:54;32.20;;;19.40;;
76262;SDS011;65080;50.908;6.916;2023-04-08T06:20:23;38.83;;;22.10;;
76262;SDS011;65080;50.908;6.916;2023-04-08T06:22:51;33.30;;;19.70;;
76262;SDS011;65080;50.908;6.916;2023-04-08T06:25:20;35.10;;;21.63;;
76262;SDS011;65080;50.908;6.916;2023-04-08T06:27:48;34.37;;;21.37;;
76262;SDS011;65080;50.908;6.916;2023-04-08T06:30:17;39.57;;;23.10;;
76262;SDS011;65080;50.908;6.916;2023-04-08T06:32:46;36.17;;;22.37;;
76262;SDS011;65080;50.908;6.916;2023-04-08T06:35:15;35.03;;;21.30;;
76262;SDS011;65080;50.908;6.916;2023-04-08T06:37:43;38.17;;;24.10;;
76262;SDS011;65080;50.908;6.916;2023-04-08T06:40:11;43.20;;;23.17;;
76262;SDS011;65080;50.908;6.916;2023-04-08T06:42:39;43.27;;;22.50;;
76262;SDS011;65080;50.908;6.916;2023-04-08T06:45:10;41.90;;;23.13;;
76262;SDS011;65080;50.908;6.916;2023-04-08T06:47:38;39.67;;;23.63;;
76262;SDS011;65080;50.908;6.916;2023-04-08T06:50:08;42.67;;;23.07;;
76262;SDS011;65080;50.908;6.916;2023-04-08T06:52:37;40.50;;;23.80;;
76262;SDS011;65080;50.908;6.916;2023-04-08T06:55:05;40.80;;;24.43;;
76262;SDS011;65080;50.908;6.916;2023-04-08T06:57:34;40.03;;;25.27;;
76262;SDS011;65080;50.908;6.916;2023-04-08T07:00:02;40.93;;;23.37;;
76262;SDS011;65080;50.908;6.916;2023-04-08T07:02:31;39.87;;;23.30;;
76262;SDS011;65080;50.908;6.916;2023-04-08T07:04:59;41.13;;;23.70;;
76262;SDS011;65080;50.908;6.916;2023-04-08T07:07:29;40.73;;;23.10;;
76262;SDS011;65080;50.908;6.916;2023-04-08T07:09:57;39.10;;;23.67;;
76262;SDS011;65080;50.908;6.916;2023-04-08T07:12:26;39.93;;;24.10;;
76262;SDS011;65080;50.908;6.916;2023-04-08T07:14:54;45.17;;;26.47;;
76262;SDS011;65080;50.908;6.916;2023-04-08T07:17:23;41.37;;;25.30;;
76262;SDS011;65080;50.908;6.916;2023-04-08T07:19:51;43.80;;;26.20;;
76262;SDS011;65080;50.908;6.916;2023-04-08T07:22:19;46.30;;;26.97;;
76262;SDS011;65080;50.908;6.916;2023-04-08T07:24:49;45.60;;;26.50;;
76262;SDS011;65080;50.908;6.916;2023-04-08T07:27:17;44.47;;;27.17;;
76262;SDS011;65080;50.908;6.916;2023-04-08T07:29:45;51.57;;;28.70;;
76262;SDS011;65080;50.908;6.916;2023-04-08T07:32:13;45.63;;;26.67;;
76262;SDS011;65080;50.908;6.916;2023-04-08T07:34:42;47.33;;;28.43;;
76262;SDS011;65080;50.908;6.916;2023-04-08T07:37:10;47.40;;;28.70;;
76262;SDS011;65080;50.908;6.916;2023-04-08T07:39:38;49.83;;;27.90;;
76262;SDS011;65080;50.908;6.916;2023-04-08T07:42:08;48.07;;;28.80;;
76262;SDS011;65080;50.908;6.916;2023-04-08T07:44:36;45.13;;;27.20;;
76262;SDS011;65080;50.908;6.916;2023-04-08T07:47:04;47.90;;;27.83;;
76262;SDS011;65080;50.908;6.916;2023-04-08T07:49:33;44.47;;;26.70;;
76262;SDS011;65080;50.908;6.916;2023-04-08T07:52:02;47.27;;;28.60;;
76262;SDS011;65080;50.908;6.916;2023-04-08T07:54:30;40.77;;;27.20;;
76262;SDS011;65080;50.908;6.916;2023-04-08T07:56:59;41.00;;;27.90;;
76262;SDS011;65080;50.908;6.916;2023-04-08T07:59:31;46.47;;;27.90;;
76262;SDS011;65080;50.908;6.916;2023-04-08T08:01:59;36.30;;;24.87;;
76262;SDS011;65080;50.908;6.916;2023-04-08T08:04:27;41.07;;;26.87;;
76262;SDS011;65080;50.908;6.916;2023-04-08T08:06:56;39.83;;;26.60;;
76262;SDS011;65080;50.908;6.916;2023-04-08T08:09:25;44.73;;;27.23;;
76262;SDS011;65080;50.908;6.916;2023-04-08T08:11:53;36.87;;;23.70;;
76262;SDS011;65080;50.908;6.916;2023-04-08T08:14:21;45.23;;;27.43;;
76262;SDS011;65080;50.908;6.916;2023-04-08T08:16:52;46.33;;;27.87;;
76262;SDS011;65080;50.908;6.916;2023-04-08T08:19:20;37.50;;;26.30;;
76262;SDS011;65080;50.908;6.916;2023-04-08T08:21:49;35.77;;;24.43;;
76262;SDS011;65080;50.908;6.916;2023-04-08T08:24:18;33.03;;;23.00;;
76262;SDS011;65080;50.908;6.916;2023-04-08T08:26:47;33.27;;;23.47;;
76262;SDS011;65080;50.908;6.916;2023-04-08T08:29:15;31.60;;;23.00;;
76262;SDS011;65080;50.908;6.916;2023-04-08T08:31:43;35.90;;;25.10;;
76262;SDS011;65080;50.908;6.916;2023-04-08T08:34:15;37.67;;;25.07;;
76262;SDS011;65080;50.908;6.916;2023-04-08T08:36:44;35.53;;;23.70;;
76262;SDS011;65080;50.908;6.916;2023-04-08T08:39:12;38.83;;;23.73;;
76262;SDS011;65080;50.908;6.916;2023-04-08T08:41:40;34.07;;;24.00;;
76262;SDS011;65080;50.908;6.916;2023-04-08T08:44:08;36.13;;;24.90;;
76262;SDS011;65080;50.908;6.916;2023-04-08T08:46:37;33.50;;;23.43;;
76262;SDS011;65080;50.908;6.916;2023-04-08T08:49:10;34.57;;;24.77;;
76262;SDS011;65080;50.908;6.916;2023-04-08T08:51:40;34.90;;;25.90;;
76262;SDS011;65080;50.908;6.916;2023-04-08T08:54:11;34.07;;;25.03;;
76262;SDS011;65080;50.908;6.916;2023-04-08T08:56:41;36.10;;;24.00;;
76262;SDS011;65080;50.908;6.916;2023-04-08T08:59:09;38.30;;;25.63;;
76262;SDS011;65080;50.908;6.916;2023-04-08T09:01:38;33.40;;;24.20;;
76262;SDS011;65080;50.908;6.916;2023-04-08T09:04:11;34.17;;;23.53;;
76262;SDS011;65080;50.908;6.916;2023-04-08T09:06:44;30.70;;;22.20;;
76262;SDS011;65080;50.908;6.916;2023-04-08T09:09:15;32.00;;;23.53;;
76262;SDS011;65080;50.908;6.916;2023-04-08T09:11:46;32.23;;;23.20;;
76262;SDS011;65080;50.908;6.916;2023-04-08T09:14:18;31.87;;;22.63;;
76262;SDS011;65080;50.908;6.916;2023-04-08T09:16:48;34.77;;;24.80;;
76262;SDS011;65080;50.908;6.916;2023-04-08T09:19:17;32.70;;;23.63;;
76262;SDS011;65080;50.908;6.916;2023-04-08T09:21:50;32.80;;;24.20;;
76262;SDS011;65080;50.908;6.916;2023-04-08T09:24:32;30.87;;;22.77;;
76262;SDS011;65080;50.908;6.916;2023-04-08T09:27:00;35.60;;;24.47;;
76262;SDS011;65080;50.908;6.916;2023-04-08T09:29:28;33.37;;;24.33;;
76262;SDS011;65080;50.908;6.916;2023-04-08T09:32:01;34.50;;;25.87;;
76262;SDS011;65080;50.908;6.916;2023-04-08T09:34:29;37.03;;;26.10;;
76262;SDS011;65080;50.908;6.916;2023-04-08T09:37:01;38.30;;;25.30;;
76262;SDS011;65080;50.908;6.916;2023-04-08T09:39:29;38.17;;;25.50;;
76262;SDS011;65080;50.908;6.916;2023-04-08T09:41:57;39.90;;;25.83;;
76262;SDS011;65080;50.908;6.916;2023-04-08T09:44:29;44.97;;;31.10;;
76262;SDS011;65080;50.908;6.916;2023-04-08T09:47:00;49.30;;;32.37;;
76262;SDS011;65080;50.908;6.916;2023-04-08T09:49:37;49.00;;;30.63;;
76262;SDS011;65080;50.908;6.916;2023-04-08T09:52:12;49.47;;;31.60;;
76262;SDS011;65080;50.908;6.916;2023-04-08T09:54:50;43.00;;;29.80;;
76262;SDS011;65080;50.908;6.916;2023-04-08T09:57:21;51.70;;;32.30;;
76262;SDS011;65080;50.908;6.916;2023-04-08T09:59:56;53.53;;;30.90;;
76262;SDS011;65080;50.908;6.916;2023-04-08T10:02:32;58.40;;;33.63;;
76262;SDS011;65080;50.908;6.916;2023-04-08T10:05:06;62.43;;;35.60;;
76262;SDS011;65080;50.908;6.916;2023-04-08T10:07:36;70.53;;;39.30;;
76262;SDS011;65080;50.908;6.916;2023-04-08T10:10:05;76.53;;;42.60;;
76262;SDS011;65080;50.908;6.916;2023-04-08T10:12:34;69.00;;;39.80;;
76262;SDS011;65080;50.908;6.916;2023-04-08T10:17:51;73.13;;;39.60;;
76262;SDS011;65080;50.908;6.916;2023-04-08T10:23:13;69.73;;;39.53;;
76262;SDS011;65080;50.908;6.916;2023-04-08T10:25:42;62.23;;;37.07;;
76262;SDS011;65080;50.908;6.916;2023-04-08T10:28:23;69.60;;;40.17;;
76262;SDS011;65080;50.908;6.916;2023-04-08T10:30:53;68.60;;;39.57;;
76262;SDS011;65080;50.908;6.916;2023-04-08T10:33:23;58.40;;;37.77;;
76262;SDS011;65080;50.908;6.916;2023-04-08T10:36:00;58.20;;;37.57;;
76262;SDS011;65080;50.908;6.916;2023-04-08T10:38:38;54.90;;;36.47;;
76262;SDS011;65080;50.908;6.916;2023-04-08T10:41:08;60.00;;;37.40;;
76262;SDS011;65080;50.908;6.916;2023-04-08T10:43:37;54.07;;;36.90;;
76262;SDS011;65080;50.908;6.916;2023-04-08T10:46:05;52.47;;;35.40;;
76262;SDS011;65080;50.908;6.916;2023-04-08T10:48:37;48.57;;;34.17;;
76262;SDS011;65080;50.908;6.916;2023-04-08T10:51:05;43.67;;;31.43;;
76262;SDS011;65080;50.908;6.916;2023-04-08T10:53:34;45.37;;;31.30;;
76262;SDS011;65080;50.908;6.916;2023-04-08T10:56:05;42.93;;;31.00;;
76262;SDS011;65080;50.908;6.916;2023-04-08T10:58:34;41.80;;;30.40;;
76262;SDS011;65080;50.908;6.916;2023-04-08T11:01:03;42.47;;;31.17;;
76262;SDS011;65080;50.908;6.916;2023-04-08T11:03:33;40.40;;;30.70;;
76262;SDS011;65080;50.908;6.916;2023-04-08T11:06:03;39.03;;;29.63;;
76262;SDS011;65080;50.908;6.916;2023-04-08T11:08:33;34.10;;;27.70;;
76262;SDS011;65080;50.908;6.916;2023-04-08T11:11:04;35.17;;;27.10;;
76262;SDS011;65080;50.908;6.916;2023-04-08T11:13:34;35.90;;;28.30;;
76262;SDS011;65080;50.908;6.916;2023-04-08T11:16:03;33.70;;;26.87;;
76262;SDS011;65080;50.908;6.916;2023-04-08T11:18:44;29.30;;;25.77;;
76262;SDS011;65080;50.908;6.916;2023-04-08T11:21:13;30.60;;;25.37;;
76262;SDS011;65080;50.908;6.916;2023-04-08T11:23:42;30.33;;;24.60;;
76262;SDS011;65080;50.908;6.916;2023-04-08T11:26:12;26.60;;;22.77;;
76262;SDS011;65080;50.908;6.916;2023-04-08T11:28:41;28.40;;;23.77;;
76262;SDS011;65080;50.908;6.916;2023-04-08T11:31:11;24.40;;;21.23;;
76262;SDS011;65080;50.908;6.916;2023-04-08T11:33:45;27.37;;;22.40;;
76262;SDS011;65080;50.908;6.916;2023-04-08T11:36:16;28.27;;;23.40;;
76262;SDS011;65080;50.908;6.916;2023-04-08T11:38:47;26.40;;;21.63;;
76262;SDS011;65080;50.908;6.916;2023-04-08T11:41:16;27.60;;;22.03;;
76262;SDS011;65080;50.908;6.916;2023-04-08T11:43:51;25.80;;;21.60;;
76262;SDS011;65080;50.908;6.916;2023-04-08T11:46:21;27.50;;;22.63;;
76262;SDS011;65080;50.908;6.916;2023-04-08T11:48:59;28.53;;;23.27;;
76262;SDS011;65080;50.908;6.916;2023-04-08T11:51:28;35.90;;;26.50;;
76262;SDS011;65080;50.908;6.916;2023-04-08T11:53:56;32.90;;;24.87;;
76262;SDS011;65080;50.908;6.916;2023-04-08T11:56:26;30.90;;;23.67;;
76262;SDS011;65080;50.908;6.916;2023-04-08T11:58:56;35.10;;;24.43;;
76262;SDS011;65080;50.908;6.916;2023-04-08T12:01:24;41.63;;;26.67;;
76262;SDS011;65080;50.908;6.916;2023-04-08T12:03:53;34.13;;;24.07;;
76262;SDS011;65080;50.908;6.916;2023-04-08T12:06:24;32.53;;;24.33;;
76262;SDS011;65080;50.908;6.916;2023-04-08T12:08:53;41.00;;;25.27;;
76262;SDS011;65080;50.908;6.916;2023-04-08T12:11:22;42.03;;;26.23;;
76262;SDS011;65080;50.908;6.916;2023-04-08T12:13:52;40.57;;;26.63;;
76262;SDS011;65080;50.908;6.916;2023-04-08T12:16:20;42.70;;;28.50;;
76262;SDS011;65080;50.908;6.916;2023-04-08T12:18:49;43.67;;;27.73;;
76262;SDS011;65080;50.908;6.916;2023-04-08T12:21:17;42.93;;;27.40;;
76262;SDS011;65080;50.908;6.916;2023-04-08T12:23:45;42.47;;;26.90;;
76262;SDS011;65080;50.908;6.916;2023-04-08T12:26:14;44.80;;;28.90;;
76262;SDS011;65080;50.908;6.916;2023-04-08T12:28:42;45.23;;;28.50;;
76262;SDS011;65080;50.908;6.916;2023-04-08T12:31:12;43.50;;;28.80;;
76262;SDS011;65080;50.908;6.916;2023-04-08T12:33:41;43.20;;;25.83;;
76262;SDS011;65080;50.908;6.916;2023-04-08T12:36:09;44.77;;;26.43;;
76262;SDS011;65080;50.908;6.916;2023-04-08T12:38:39;37.80;;;25.80;;
76262;SDS011;65080;50.908;6.916;2023-04-08T12:41:07;43.50;;;27.17;;
76262;SDS011;65080;50.908;6.916;2023-04-08T12:43:35;45.97;;;27.30;;
76262;SDS011;65080;50.908;6.916;2023-04-08T12:46:04;42.03;;;27.07;;
76262;SDS011;65080;50.908;6.916;2023-04-08T12:48:34;41.30;;;27.40;;
76262;SDS011;65080;50.908;6.916;2023-04-08T12:51:02;35.90;;;23.83;;
76262;SDS011;65080;50.908;6.916;2023-04-08T12:53:30;39.23;;;25.47;;
76262;SDS011;65080;50.908;6.916;2023-04-08T12:55:59;37.07;;;23.27;;
76262;SDS011;65080;50.908;6.916;2023-04-08T12:58:28;33.20;;;21.60;;
76262;SDS011;65080;50.908;6.916;2023-04-08T13:00:56;35.67;;;23.07;;
76262;SDS011;65080;50.908;6.916;2023-04-08T13:03:24;35.63;;;22.97;;
76262;SDS011;65080;50.908;6.916;2023-04-08T13:05:57;39.93;;;23.97;;
76262;SDS011;65080;50.908;6.916;2023-04-08T13:08:25;36.73;;;23.47;;
76262;SDS011;65080;50.908;6.916;2023-04-08T13:10:53;38.57;;;23.57;;
76262;SDS011;65080;50.908;6.916;2023-04-08T13:13:22;39.17;;;24.40;;
76262;SDS011;65080;50.908;6.916;2023-04-08T13:15:50;37.23;;;25.03;;
76262;SDS011;65080;50.908;6.916;2023-04-08T13:18:18;41.90;;;25.43;;
76262;SDS011;65080;50.908;6.916;2023-04-08T13:20:46;39.17;;;25.50;;
76262;SDS011;65080;50.908;6.916;2023-04-08T13:23:16;39.00;;;25.97;;
76262;SDS011;65080;50.908;6.916;2023-04-08T13:25:44;38.03;;;22.97;;
76262;SDS011;65080;50.908;6.916;2023-04-08T13:28:13;41.30;;;25.93;;
76262;SDS011;65080;50.908;6.916;2023-04-08T13:30:41;36.53;;;23.57;;
76262;SDS011;65080;50.908;6.916;2023-04-08T13:33:09;42.97;;;26.37;;
76262;SDS011;65080;50.908;6.916;2023-04-08T13:35:38;40.50;;;24.83;;
76262;SDS011;65080;50.908;6.916;2023-04-08T13:38:06;42.30;;;26.07;;
76262;SDS011;65080;50.908;6.916;2023-04-08T13:40:36;40.30;;;24.73;;
76262;SDS011;65080;50.908;6.916;2023-04-08T13:43:04;35.53;;;23.37;;
76262;SDS011;65080;50.908;6.916;2023-04-08T13:45:33;39.53;;;24.77;;
76262;SDS011;65080;50.908;6.916;2023-04-08T13:48:02;36.40;;;24.13;;
76262;SDS011;65080;50.908;6.916;2023-04-08T13:50:30;33.73;;;22.80;;
76262;SDS011;65080;50.908;6.916;2023-04-08T13:52:58;39.50;;;24.47;;
76262;SDS011;65080;50.908;6.916;2023-04-08T13:55:27;43.50;;;25.17;;
76262;SDS011;65080;50.908;6.916;2023-04-08T13:57:57;41.87;;;26.60;;
76262;SDS011;65080;50.908;6.916;2023-04-08T14:00:28;43.40;;;26.70;;
76262;SDS011;65080;50.908;6.916;2023-04-08T14:02:56;43.13;;;26.50;;
76262;SDS011;65080;50.908;6.916;2023-04-08T14:05:25;40.17;;;26.80;;
76262;SDS011;65080;50.908;6.916;2023-04-08T14:07:53;35.57;;;24.90;;
76262;SDS011;65080;50.908;6.916;2023-04-08T14:10:21;27.33;;;17.30;;
76262;SDS011;65080;50.908;6.916;2023-04-08T14:12:49;21.03;;;15.20;;
76262;SDS011;65080;50.908;6.916;2023-04-08T14:15:19;17.73;;;13.23;;
76262;SDS011;65080;50.908;6.916;2023-04-08T14:17:47;16.47;;;11.70;;
76262;SDS011;65080;50.908;6.916;2023-04-08T14:20:15;12.63;;;10.13;;
76262;SDS011;65080;50.908;6.916;2023-04-08T14:22:44;10.50;;;7.60;;
76262;SDS011;65080;50.908;6.916;2023-04-08T14:25:12;10.97;;;7.90;;
76262;SDS011;65080;50.908;6.916;2023-04-08T14:27:40;8.57;;;6.70;;
76262;SDS011;65080;50.908;6.916;2023-04-08T14:30:25;8.83;;;6.00;;
76262;SDS011;65080;50.908;6.916;2023-04-08T14:32:53;9.97;;;5.23;;
76262;SDS011;65080;50.908;6.916;2023-04-08T14:35:22;7.67;;;4.27;;
76262;SDS011;65080;50.908;6.916;2023-04-08T14:37:50;6.40;;;4.50;;
76262;SDS011;65080;50.908;6.916;2023-04-08T14:40:18;6.37;;;4.40;;